This is the latest recevied weather packets stored in our database for station/object N4OGP-WX. If no packets are shown the sender has not sent any weather packets the latest 10 day(s).
| Time | Temp. | Humidity | Pressure | Rain* | Wind** | Luminosity | Snow |
|---|---|---|---|---|---|---|---|
| 1777561730 | 23.89° C | 42% | 1020.4 hPa | 0 mm | - | - | - |
| 1777561670 | 23.89° C | 76% | 1011.1 hPa | 0 mm | - | - | - |
| 1777561610 | 23.89° C | 42% | 1020.4 hPa | 0 mm | - | - | - |
| 1777561550 | 23.33° C | 76% | 1011.2 hPa | 0 mm | - | - | - |
| 1777561460 | 23.89° C | 42% | 1020.4 hPa | 0 mm | - | - | - |
| 1777561400 | 23.33° C | 76% | 1011.2 hPa | 0 mm | - | - | - |
| 1777561310 | 23.33° C | 77% | 1011.3 hPa | 0 mm | - | - | - |
| 1777561250 | 23.33° C | 78% | 1011.3 hPa | 0 mm | - | - | - |
| 1777561190 | 23.89° C | 42% | 1020.4 hPa | 0 mm | - | - | - |
| 1777561130 | 23.33° C | 78% | 1011.3 hPa | 0 mm | - | - | - |
| 1777561040 | 23.89° C | 42% | 1020.4 hPa | 0 mm | - | - | - |
| 1777560980 | 23.89° C | 42% | 1020.4 hPa | 0 mm | - | - | - |
| 1777560920 | 23.33° C | 78% | 1011.3 hPa | 0 mm | - | - | - |
| 1777560860 | 23.89° C | 42% | 1020.4 hPa | 0 mm | - | - | - |
| 1777560800 | 22.78° C | 79% | 1011.1 hPa | 0 mm | - | - | - |
| 1777560740 | 23.89° C | 42% | 1020.4 hPa | 0 mm | - | - | - |
| 1777560650 | 22.78° C | 79% | 1011 hPa | 0 mm | - | - | - |
| 1777560590 | 23.89° C | 42% | 1020.4 hPa | 0 mm | - | - | - |
| 1777560530 | 22.78° C | 79% | 1011 hPa | 0 mm | - | - | - |
| 1777560470 | 23.89° C | 42% | 1020.4 hPa | 0 mm | - | - | - |
| 1777560410 | 23.89° C | 42% | 1020.4 hPa | 0 mm | - | - | - |
| 1777560350 | 23.89° C | 42% | 1020.4 hPa | 0 mm | - | - | - |
| 1777560290 | 23.89° C | 42% | 1020.4 hPa | 0 mm | - | - | - |
| 1777560200 | 23.89° C | 42% | 1020.4 hPa | 0 mm | - | - | - |
| 1777560140 | 23.33° C | 79% | 1010.9 hPa | 0 mm | - | - | - |
* Rain latest hour (hover to see other rain measurements)
** Current wind speed in m/s (hover to see current wind gust speed)